Algoma Mariner — CFN5517 — position and weather

sailwx.info

Track history (hours):
 
Tides and Currents Weather Stations Pressure Air Temp Water Temp Dewpoint Dewpoint Depression Visibility Wind Speed Wind Dir Waves Ship Positions

Algoma Mariner

Last reported at 2017-Oct-18 11:09 UTC. Time now 2017-Oct-18 20:46 UTC.
Position N 45°14' W 074°13'.

Length 225 m; draft 10.3 m.

Type: Cargo ship. MMSI: 316014050.

Date/timePositionNaut miles runAvg speedWind from/ knotsBaromVisibWave heightAir tempDewpointWater temp
2017-Oct-18 11:09N 45°14' W 074°13'1 9.6
2017-Oct-18 11:00N 45°14' W 074°11'5 8.4
2017-Oct-18 10:24N 45°13' W 074°04'3 8.2
2017-Oct-18 10:00N 45°14' W 073°59'4 8.4
2017-Oct-18 09:31N 45°18' W 073°56'0 0.9
2017-Oct-18 09:00N 45°18' W 073°56'1 1.5
2017-Oct-18 08:30N 45°19' W 073°55'0 0.3
2017-Oct-18 08:01N 45°19' W 073°55'1 2.7
2017-Oct-18 07:30N 45°20' W 073°54'5 9.4
2017-Oct-18 07:00N 45°23' W 073°48'4 8.2
2017-Oct-18 06:30N 45°25' W 073°43'3 5.6
2017-Oct-18 06:00N 45°24' W 073°39'3 5.9
2017-Oct-18 05:30N 45°24' W 073°35'1 1.3
2017-Oct-18 04:55N 45°24' W 073°34'1 1.7
2017-Oct-18 04:27N 45°24' W 073°33'2 5.1
2017-Oct-18 04:00N 45°26' W 073°30'3 6.4
2017-Oct-18 03:30N 45°29' W 073°31'148 5.8
2017-Oct-17 02:00N 47°00' W 070°42'   300 / 151017.010.8 6.0
2017-Oct-14 02:00N 44°30' W 062°54'   180 / 151029.027.0 12.0
2017-Oct-10 03:00N 48°54' W 063°42'27311.4 180 / 151007.027.0 12.0
2017-Oct-09 03:00N 47°30' W 070°12'18211.9 320 / 51006.027.0 18.0
2017-Oct-08 11:40N 45°30' W 073°31'  
Track history (hours):
 
Tides and Currents Weather Stations Pressure Air Temp Water Temp Dewpoint Dewpoint Depression Visibility Wind Speed Wind Dir Waves Ship Positions

Algoma Mariner

Last reported at 2017-Oct-18 11:09 UTC. Time now 2017-Oct-18 20:46 UTC.
Position N 45°14' W 074°13'.

Length 225 m; draft 10.3 m.

Type: Cargo ship. MMSI: 316014050.

Date/timePositionNaut miles runAvg speedWind from/ knotsBaromVisibWave heightAir tempDewpointWater temp
2017-Oct-18 11:09N 45°14' W 074°13'1 9.6
2017-Oct-18 11:00N 45°14' W 074°11'5 8.4
2017-Oct-18 10:24N 45°13' W 074°04'3 8.2
2017-Oct-18 10:00N 45°14' W 073°59'4 8.4
2017-Oct-18 09:31N 45°18' W 073°56'0 0.9
2017-Oct-18 09:00N 45°18' W 073°56'1 1.5
2017-Oct-18 08:30N 45°19' W 073°55'0 0.3
2017-Oct-18 08:01N 45°19' W 073°55'1 2.7
2017-Oct-18 07:30N 45°20' W 073°54'5 9.4
2017-Oct-18 07:00N 45°23' W 073°48'4 8.2
2017-Oct-18 06:30N 45°25' W 073°43'3 5.6
2017-Oct-18 06:00N 45°24' W 073°39'3 5.9
2017-Oct-18 05:30N 45°24' W 073°35'1 1.3
2017-Oct-18 04:55N 45°24' W 073°34'1 1.7
2017-Oct-18 04:27N 45°24' W 073°33'2 5.1
2017-Oct-18 04:00N 45°26' W 073°30'3 6.4
2017-Oct-18 03:30N 45°29' W 073°31'148 5.8
2017-Oct-17 02:00N 47°00' W 070°42'   300 / 151017.010.8 6.0
2017-Oct-14 02:00N 44°30' W 062°54'   180 / 151029.027.0 12.0
2017-Oct-10 03:00N 48°54' W 063°42'27311.4 180 / 151007.027.0 12.0
2017-Oct-09 03:00N 47°30' W 070°12'18211.9 320 / 51006.027.0 18.0
2017-Oct-08 11:40N 45°30' W 073°31'  

Dump ship's entire track history